createdAt,value
2019-05-10T09:29:46.514Z,0.90
2019-05-10T09:32:14.800Z,0.90
2019-05-10T09:34:43.119Z,0.93
2019-05-10T09:37:14.319Z,1.10
2019-05-10T09:39:42.390Z,0.90
2019-05-10T09:42:24.875Z,1.00
2019-05-10T09:44:41.099Z,1.25
2019-05-10T09:47:09.447Z,1.20
2019-05-10T09:49:37.752Z,1.00
2019-05-10T15:30:55.069Z,1.65
2019-05-10T15:33:23.447Z,1.98
2019-05-10T15:35:53.891Z,1.80
2019-05-10T15:38:21.841Z,1.65
2019-05-10T15:40:50.250Z,1.67
2019-05-10T15:43:20.102Z,1.80
2019-05-10T15:45:52.566Z,1.70
2019-05-10T15:48:18.720Z,1.50
2019-05-10T15:50:47.123Z,1.70
2019-05-10T15:53:19.418Z,1.65
2019-05-10T15:55:45.502Z,1.65
2019-05-10T15:58:13.886Z,2.10
2019-05-10T16:00:42.238Z,2.67
2019-05-10T16:03:10.573Z,2.17
2019-05-10T16:05:43.609Z,1.92
2019-05-10T16:08:08.996Z,3.70
2019-05-10T16:10:39.560Z,2.37
2019-05-10T16:13:07.463Z,2.87
2019-05-10T16:15:35.797Z,2.42
2019-05-10T16:18:04.540Z,2.30
2019-05-10T16:20:37.277Z,3.00
2019-05-10T16:23:08.345Z,3.15
2019-05-10T16:25:41.122Z,2.77
2019-05-10T16:28:03.216Z,3.72
2019-05-10T16:30:31.501Z,3.10
2019-05-10T16:32:59.873Z,2.83
2019-05-10T16:35:38.421Z,3.60
2019-05-10T16:37:58.276Z,3.77
2019-05-10T16:40:26.570Z,3.40
2019-05-10T16:42:55.158Z,3.02
2019-05-10T16:45:23.441Z,2.83
2019-05-10T16:47:51.834Z,3.30
2019-05-10T16:50:20.289Z,3.37
2019-05-10T16:52:48.624Z,3.22
2019-05-10T16:55:16.999Z,3.50
2019-05-10T16:57:45.344Z,3.00
2019-05-10T17:00:14.077Z,3.52
2019-05-10T17:02:43.929Z,2.83
2019-05-10T17:05:15.214Z,3.20
2019-05-10T17:07:42.551Z,3.15
2019-05-10T17:10:11.152Z,3.22
2019-05-10T17:12:39.483Z,2.85
2019-05-10T17:15:08.836Z,3.30
2019-05-10T17:17:39.169Z,3.02
2019-05-10T17:20:14.171Z,3.12
2019-05-10T17:22:38.605Z,3.15
2019-05-10T17:25:11.927Z,3.08
2019-05-10T17:27:40.251Z,3.50
2019-05-10T17:30:08.922Z,3.35
2019-05-10T17:32:37.220Z,2.80
2019-05-10T17:35:07.486Z,3.17
2019-05-10T17:37:37.422Z,2.80
2019-05-10T17:40:10.170Z,2.77
